sensor_id;sensor_type;location;lat;lon;timestamp;pressure;altitude;pressure_sealevel;temperature;humidity
58843;BME280;44614;54.356;10.100;2023-03-01T00:01:49;102938.41;;;-0.52;93.33
58843;BME280;44614;54.356;10.100;2023-03-01T00:04:14;102940.91;;;-0.49;94.22
58843;BME280;44614;54.356;10.100;2023-03-01T00:06:42;102940.69;;;-0.46;94.74
58843;BME280;44614;54.356;10.100;2023-03-01T00:09:08;102936.91;;;-0.43;95.91
58843;BME280;44614;54.356;10.100;2023-03-01T00:11:33;102930.50;;;-0.55;96.85
58843;BME280;44614;54.356;10.100;2023-03-01T00:14:00;102930.84;;;-0.47;96.84
58843;BME280;44614;54.356;10.100;2023-03-01T00:16:29;102953.78;;;-0.40;97.15
58843;BME280;44614;54.356;10.100;2023-03-01T00:18:56;102944.72;;;-0.39;97.08
58843;BME280;44614;54.356;10.100;2023-03-01T00:21:22;102942.88;;;-0.38;97.00
58843;BME280;44614;54.356;10.100;2023-03-01T00:23:47;102922.94;;;-0.50;97.30
58843;BME280;44614;54.356;10.100;2023-03-01T00:26:14;102944.81;;;-0.40;97.32
58843;BME280;44614;54.356;10.100;2023-03-01T00:28:40;102943.97;;;-0.41;97.73
58843;BME280;44614;54.356;10.100;2023-03-01T00:31:07;102871.19;;;-0.84;97.65
58843;BME280;44614;54.356;10.100;2023-03-01T00:33:34;102926.72;;;-0.53;97.79
58843;BME280;44614;54.356;10.100;2023-03-01T00:35:59;102946.75;;;-0.42;97.66
58843;BME280;44614;54.356;10.100;2023-03-01T00:38:25;102950.41;;;-0.43;97.81
58843;BME280;44614;54.356;10.100;2023-03-01T00:40:51;102952.25;;;-0.44;97.68
58843;BME280;44614;54.356;10.100;2023-03-01T00:43:17;102954.47;;;-0.51;98.10
58843;BME280;44614;54.356;10.100;2023-03-01T00:45:43;102946.69;;;-0.55;98.69
58843;BME280;44614;54.356;10.100;2023-03-01T00:48:08;102946.13;;;-0.60;98.56
58843;BME280;44614;54.356;10.100;2023-03-01T00:50:33;102949.13;;;-0.65;99.22
58843;BME280;44614;54.356;10.100;2023-03-01T00:52:59;102954.13;;;-0.73;99.32
58843;BME280;44614;54.356;10.100;2023-03-01T00:55:24;102945.56;;;-0.80;100.00
58843;BME280;44614;54.356;10.100;2023-03-01T00:57:50;102947.28;;;-0.79;100.00
58843;BME280;44614;54.356;10.100;2023-03-01T01:00:16;102934.97;;;-0.83;100.00
58843;BME280;44614;54.356;10.100;2023-03-01T01:02:42;102938.16;;;-0.90;100.00
58843;BME280;44614;54.356;10.100;2023-03-01T01:05:08;102921.28;;;-0.94;100.00
58843;BME280;44614;54.356;10.100;2023-03-01T01:07:33;102934.97;;;-0.83;100.00
58843;BME280;44614;54.356;10.100;2023-03-01T01:09:59;102929.56;;;-0.83;99.79
58843;BME280;44614;54.356;10.100;2023-03-01T01:12:24;102930.56;;;-0.84;99.97
58843;BME280;44614;54.356;10.100;2023-03-01T01:14:49;102926.28;;;-0.88;99.40
58843;BME280;44614;54.356;10.100;2023-03-01T01:17:15;102918.59;;;-0.94;99.69
58843;BME280;44614;54.356;10.100;2023-03-01T01:19:40;102924.19;;;-0.97;99.81
58843;BME280;44614;54.356;10.100;2023-03-01T01:22:05;102913.59;;;-1.00;99.55
58843;BME280;44614;54.356;10.100;2023-03-01T01:24:31;102925.53;;;-1.04;100.00
58843;BME280;44614;54.356;10.100;2023-03-01T01:26:56;102914.06;;;-1.08;100.00
58843;BME280;44614;54.356;10.100;2023-03-01T01:29:21;102907.25;;;-1.13;100.00
58843;BME280;44614;54.356;10.100;2023-03-01T01:31:47;102909.75;;;-1.10;100.00
58843;BME280;44614;54.356;10.100;2023-03-01T01:34:18;102914.84;;;-1.06;100.00
58843;BME280;44614;54.356;10.100;2023-03-01T01:36:48;102911.06;;;-1.03;99.93
58843;BME280;44614;54.356;10.100;2023-03-01T01:39:14;102905.91;;;-1.06;100.00
58843;BME280;44614;54.356;10.100;2023-03-01T01:41:41;102910.63;;;-1.10;100.00
58843;BME280;44614;54.356;10.100;2023-03-01T01:46:48;102911.09;;;-1.32;100.00
58843;BME280;44614;54.356;10.100;2023-03-01T01:49:35;102903.56;;;-1.41;100.00
58843;BME280;44614;54.356;10.100;2023-03-01T01:54:37;102901.06;;;-1.44;100.00
58843;BME280;44614;54.356;10.100;2023-03-01T01:57:09;102897.03;;;-1.37;100.00
58843;BME280;44614;54.356;10.100;2023-03-01T01:59:36;102900.78;;;-1.39;100.00
58843;BME280;44614;54.356;10.100;2023-03-01T02:02:03;102903.84;;;-1.45;100.00
58843;BME280;44614;54.356;10.100;2023-03-01T02:04:31;102901.25;;;-1.47;100.00
58843;BME280;44614;54.356;10.100;2023-03-01T02:07:19;102898.66;;;-1.49;100.00
58843;BME280;44614;54.356;10.100;2023-03-01T02:09:47;102883.63;;;-1.53;100.00
58843;BME280;44614;54.356;10.100;2023-03-01T02:12:15;102885.25;;;-1.50;100.00
58843;BME280;44614;54.356;10.100;2023-03-01T02:14:42;102885.84;;;-1.59;100.00
58843;BME280;44614;54.356;10.100;2023-03-01T02:17:08;102874.06;;;-1.73;100.00
58843;BME280;44614;54.356;10.100;2023-03-01T02:19:57;102879.84;;;-1.64;100.00
58843;BME280;44614;54.356;10.100;2023-03-01T02:22:29;102884.31;;;-1.63;100.00
58843;BME280;44614;54.356;10.100;2023-03-01T02:25:07;102881.31;;;-1.59;100.00
58843;BME280;44614;54.356;10.100;2023-03-01T02:27:59;102880.06;;;-1.53;100.00
58843;BME280;44614;54.356;10.100;2023-03-01T02:30:28;102848.28;;;-1.77;100.00
58843;BME280;44614;54.356;10.100;2023-03-01T02:32:55;102879.59;;;-1.60;100.00
58843;BME280;44614;54.356;10.100;2023-03-01T02:35:29;102875.13;;;-1.61;100.00
58843;BME280;44614;54.356;10.100;2023-03-01T02:37:57;102882.81;;;-1.69;100.00
58843;BME280;44614;54.356;10.100;2023-03-01T02:40:25;102859.06;;;-1.77;100.00
58843;BME280;44614;54.356;10.100;2023-03-01T02:42:56;102869.19;;;-1.66;100.00
58843;BME280;44614;54.356;10.100;2023-03-01T02:45:23;102870.03;;;-1.65;100.00
58843;BME280;44614;54.356;10.100;2023-03-01T02:47:49;102858.09;;;-1.76;100.00
58843;BME280;44614;54.356;10.100;2023-03-01T02:53:11;102865.34;;;-1.62;100.00
58843;BME280;44614;54.356;10.100;2023-03-01T02:55:40;102860.13;;;-1.65;100.00
58843;BME280;44614;54.356;10.100;2023-03-01T02:58:05;102852.63;;;-1.74;100.00
58843;BME280;44614;54.356;10.100;2023-03-01T03:00:35;102849.81;;;-1.73;100.00
58843;BME280;44614;54.356;10.100;2023-03-01T03:03:04;102893.78;;;-1.72;100.00
58843;BME280;44614;54.356;10.100;2023-03-01T03:05:31;102810.44;;;-2.04;100.00
58843;BME280;44614;54.356;10.100;2023-03-01T03:07:57;102856.97;;;-1.72;100.00
58843;BME280;44614;54.356;10.100;2023-03-01T03:10:27;102848.50;;;-1.65;100.00
58843;BME280;44614;54.356;10.100;2023-03-01T03:12:56;102845.72;;;-1.64;100.00
58843;BME280;44614;54.356;10.100;2023-03-01T03:15:23;102850.50;;;-1.69;100.00
58843;BME280;44614;54.356;10.100;2023-03-01T03:17:49;102848.28;;;-1.77;100.00
58843;BME280;44614;54.356;10.100;2023-03-01T03:20:17;102851.38;;;-1.83;100.00
58843;BME280;44614;54.356;10.100;2023-03-01T03:22:51;102848.66;;;-1.83;100.00
58843;BME280;44614;54.356;10.100;2023-03-01T03:25:17;102854.81;;;-1.81;100.00
58843;BME280;44614;54.356;10.100;2023-03-01T03:27:44;102845.09;;;-1.83;100.00
58843;BME280;44614;54.356;10.100;2023-03-01T03:30:13;102833.19;;;-1.79;100.00
58843;BME280;44614;54.356;10.100;2023-03-01T03:32:40;102839.44;;;-1.79;100.00
58843;BME280;44614;54.356;10.100;2023-03-01T03:35:07;102829.22;;;-1.88;100.00
58843;BME280;44614;54.356;10.100;2023-03-01T03:37:40;102829.38;;;-1.91;100.00
58843;BME280;44614;54.356;10.100;2023-03-01T03:40:26;102824.00;;;-1.91;100.00
58843;BME280;44614;54.356;10.100;2023-03-01T03:42:51;102831.53;;;-1.82;100.00
58843;BME280;44614;54.356;10.100;2023-03-01T03:45:17;102817.28;;;-1.84;100.00
58843;BME280;44614;54.356;10.100;2023-03-01T03:47:43;102786.13;;;-2.02;100.00
58843;BME280;44614;54.356;10.100;2023-03-01T03:50:14;102829.31;;;-1.89;100.00
58843;BME280;44614;54.356;10.100;2023-03-01T03:52:40;102818.84;;;-1.94;100.00
58843;BME280;44614;54.356;10.100;2023-03-01T03:55:08;102820.66;;;-1.94;100.00
58843;BME280;44614;54.356;10.100;2023-03-01T03:57:40;102816.22;;;-1.96;100.00
58843;BME280;44614;54.356;10.100;2023-03-01T04:00:08;102814.81;;;-1.87;100.00
58843;BME280;44614;54.356;10.100;2023-03-01T04:02:42;102815.34;;;-1.96;100.00
58843;BME280;44614;54.356;10.100;2023-03-01T04:05:09;102818.91;;;-1.96;100.00
58843;BME280;44614;54.356;10.100;2023-03-01T04:07:35;102818.91;;;-1.96;100.00
58843;BME280;44614;54.356;10.100;2023-03-01T04:10:05;102818.91;;;-1.96;100.00
58843;BME280;44614;54.356;10.100;2023-03-01T04:12:32;102817.19;;;-1.97;100.00
58843;BME280;44614;54.356;10.100;2023-03-01T04:14:58;102811.22;;;-2.02;100.00
58843;BME280;44614;54.356;10.100;2023-03-01T04:17:24;102784.16;;;-2.14;100.00
58843;BME280;44614;54.356;10.100;2023-03-01T04:19:49;102815.53;;;-1.99;100.00
58843;BME280;44614;54.356;10.100;2023-03-01T04:22:15;102816.31;;;-1.97;100.00
58843;BME280;44614;54.356;10.100;2023-03-01T04:24:42;102816.31;;;-1.97;100.00
58843;BME280;44614;54.356;10.100;2023-03-01T04:27:08;102806.41;;;-1.97;100.00
58843;BME280;44614;54.356;10.100;2023-03-01T04:29:34;102817.56;;;-1.88;100.00
58843;BME280;44614;54.356;10.100;2023-03-01T04:31:59;102813.06;;;-1.88;100.00
58843;BME280;44614;54.356;10.100;2023-03-01T04:34:24;102814.81;;;-1.87;100.00
58843;BME280;44614;54.356;10.100;2023-03-01T04:36:51;102815.94;;;-1.91;100.00
58843;BME280;44614;54.356;10.100;2023-03-01T04:39:17;102808.59;;;-2.03;100.00
58843;BME280;44614;54.356;10.100;2023-03-01T04:41:42;102814.00;;;-2.03;100.00
58843;BME280;44614;54.356;10.100;2023-03-01T04:44:10;102817.75;;;-2.06;100.00
58843;BME280;44614;54.356;10.100;2023-03-01T04:46:36;102820.63;;;-2.09;100.00
58843;BME280;44614;54.356;10.100;2023-03-01T04:49:03;102822.94;;;-2.03;100.00
58843;BME280;44614;54.356;10.100;2023-03-01T04:51:28;102824.94;;;-2.06;100.00
58843;BME280;44614;54.356;10.100;2023-03-01T04:53:54;102817.53;;;-2.03;100.00
58843;BME280;44614;54.356;10.100;2023-03-01T04:56:19;102816.69;;;-2.03;100.00
58843;BME280;44614;54.356;10.100;2023-03-01T04:58:45;102821.50;;;-2.08;100.00
58843;BME280;44614;54.356;10.100;2023-03-01T05:01:13;102815.41;;;-2.12;100.00
58843;BME280;44614;54.356;10.100;2023-03-01T05:03:47;102825.50;;;-2.15;100.00
58843;BME280;44614;54.356;10.100;2023-03-01T05:06:12;102810.22;;;-2.15;100.00
58843;BME280;44614;54.356;10.100;2023-03-01T05:08:39;102820.00;;;-2.14;100.00
58843;BME280;44614;54.356;10.100;2023-03-01T05:11:05;102774.09;;;-2.41;100.00
58843;BME280;44614;54.356;10.100;2023-03-01T05:13:31;102817.44;;;-2.15;100.00
58843;BME280;44614;54.356;10.100;2023-03-01T05:15:58;102817.31;;;-2.14;100.00
58843;BME280;44614;54.356;10.100;2023-03-01T05:18:25;102818.97;;;-2.11;100.00
58843;BME280;44614;54.356;10.100;2023-03-01T05:21:11;102785.94;;;-2.29;100.00
58843;BME280;44614;54.356;10.100;2023-03-01T05:23:37;102817.16;;;-2.11;100.00
58843;BME280;44614;54.356;10.100;2023-03-01T05:26:04;102811.88;;;-2.12;100.00
58843;BME280;44614;54.356;10.100;2023-03-01T05:28:30;102816.47;;;-2.14;100.00
58843;BME280;44614;54.356;10.100;2023-03-01T05:30:56;102816.47;;;-2.14;100.00
58843;BME280;44614;54.356;10.100;2023-03-01T05:33:22;102817.25;;;-2.12;100.00
58843;BME280;44614;54.356;10.100;2023-03-01T05:35:49;102813.75;;;-2.14;100.00
58843;BME280;44614;54.356;10.100;2023-03-01T05:38:16;102822.53;;;-2.11;100.00
58843;BME280;44614;54.356;10.100;2023-03-01T05:40:43;102808.22;;;-2.11;100.00
58843;BME280;44614;54.356;10.100;2023-03-01T05:43:08;102814.56;;;-2.12;100.00
58843;BME280;44614;54.356;10.100;2023-03-01T05:45:36;102816.56;;;-2.16;100.00
58843;BME280;44614;54.356;10.100;2023-03-01T05:48:02;102817.53;;;-2.17;100.00
58843;BME280;44614;54.356;10.100;2023-03-01T05:50:29;102815.78;;;-2.18;100.00
58843;BME280;44614;54.356;10.100;2023-03-01T05:53:02;102819.53;;;-2.21;100.00
58843;BME280;44614;54.356;10.100;2023-03-01T05:55:29;102818.84;;;-2.24;100.00
58843;BME280;44614;54.356;10.100;2023-03-01T05:57:54;102818.94;;;-2.26;100.00
58843;BME280;44614;54.356;10.100;2023-03-01T06:00:21;102812.09;;;-2.31;100.00
58843;BME280;44614;54.356;10.100;2023-03-01T06:02:50;102821.03;;;-2.31;100.00
58843;BME280;44614;54.356;10.100;2023-03-01T06:05:17;102821.72;;;-2.27;100.00
58843;BME280;44614;54.356;10.100;2023-03-01T06:07:43;102814.00;;;-2.33;100.00
58843;BME280;44614;54.356;10.100;2023-03-01T06:10:11;102784.44;;;-2.49;100.00
58843;BME280;44614;54.356;10.100;2023-03-01T06:12:38;102821.91;;;-2.30;100.00
58843;BME280;44614;54.356;10.100;2023-03-01T06:15:05;102812.97;;;-2.31;100.00
58843;BME280;44614;54.356;10.100;2023-03-01T06:17:31;102815.66;;;-2.31;100.00
58843;BME280;44614;54.356;10.100;2023-03-01T06:19:56;102815.94;;;-2.35;100.00
58843;BME280;44614;54.356;10.100;2023-03-01T06:22:22;102811.81;;;-2.27;100.00
58843;BME280;44614;54.356;10.100;2023-03-01T06:24:47;102807.41;;;-2.28;100.00
58843;BME280;44614;54.356;10.100;2023-03-01T06:27:12;102815.38;;;-2.26;100.00
58843;BME280;44614;54.356;10.100;2023-03-01T06:29:38;102813.06;;;-2.32;100.00
58843;BME280;44614;54.356;10.100;2023-03-01T06:32:03;102777.16;;;-2.47;100.00
58843;BME280;44614;54.356;10.100;2023-03-01T06:34:29;102816.22;;;-2.26;100.00
58843;BME280;44614;54.356;10.100;2023-03-01T06:36:54;102801.63;;;-2.22;100.00
58843;BME280;44614;54.356;10.100;2023-03-01T06:39:20;102798.88;;;-2.20;100.00
58843;BME280;44614;54.356;10.100;2023-03-01T06:41:45;102799.56;;;-2.16;100.00
58843;BME280;44614;54.356;10.100;2023-03-01T06:44:10;102795.88;;;-2.15;100.00
58843;BME280;44614;54.356;10.100;2023-03-01T06:46:36;102796.69;;;-2.13;100.00
58843;BME280;44614;54.356;10.100;2023-03-01T06:49:01;102778.31;;;-2.21;100.00
58843;BME280;44614;54.356;10.100;2023-03-01T06:51:29;102808.59;;;-2.03;100.00
58843;BME280;44614;54.356;10.100;2023-03-01T06:53:55;102801.50;;;-2.04;100.00
58843;BME280;44614;54.356;10.100;2023-03-01T06:56:20;102804.19;;;-2.04;100.00
58843;BME280;44614;54.356;10.100;2023-03-01T06:58:46;102806.03;;;-2.05;100.00
58843;BME280;44614;54.356;10.100;2023-03-01T07:01:11;102803.22;;;-2.03;100.00
58843;BME280;44614;54.356;10.100;2023-03-01T07:03:36;102804.88;;;-2.01;100.00
58843;BME280;44614;54.356;10.100;2023-03-01T07:06:02;102792.72;;;-2.08;100.00
58843;BME280;44614;54.356;10.100;2023-03-01T07:08:27;102806.22;;;-1.93;100.00
58843;BME280;44614;54.356;10.100;2023-03-01T07:10:56;102804.28;;;-1.91;100.00
58843;BME280;44614;54.356;10.100;2023-03-01T07:13:22;102804.69;;;-1.98;100.00
58843;BME280;44614;54.356;10.100;2023-03-01T07:15:47;102809.88;;;-1.94;100.00
58843;BME280;44614;54.356;10.100;2023-03-01T07:18:12;102810.53;;;-1.91;100.00
58843;BME280;44614;54.356;10.100;2023-03-01T07:20:38;102808.53;;;-1.87;100.00
58843;BME280;44614;54.356;10.100;2023-03-01T07:23:05;102818.25;;;-1.85;100.00
58843;BME280;44614;54.356;10.100;2023-03-01T07:25:31;102815.28;;;-1.80;100.00
58843;BME280;44614;54.356;10.100;2023-03-01T07:27:57;102814.81;;;-1.87;100.00
58843;BME280;44614;54.356;10.100;2023-03-01T07:30:23;102814.88;;;-1.88;100.00
58843;BME280;44614;54.356;10.100;2023-03-01T07:32:51;102828.63;;;-1.93;100.00
58843;BME280;44614;54.356;10.100;2023-03-01T07:35:17;102829.38;;;-1.91;100.00
58843;BME280;44614;54.356;10.100;2023-03-01T07:37:43;102839.69;;;-1.83;100.00
58843;BME280;44614;54.356;10.100;2023-03-01T07:40:09;102824.81;;;-1.75;100.00
58843;BME280;44614;54.356;10.100;2023-03-01T07:42:34;102835.81;;;-1.63;100.00
58843;BME280;44614;54.356;10.100;2023-03-01T07:45:00;102837.34;;;-1.59;100.00
58843;BME280;44614;54.356;10.100;2023-03-01T07:47:25;102836.09;;;-1.54;100.00
58843;BME280;44614;54.356;10.100;2023-03-01T07:49:51;102842.75;;;-1.45;100.00
58843;BME280;44614;54.356;10.100;2023-03-01T07:52:16;102836.19;;;-1.41;100.00
58843;BME280;44614;54.356;10.100;2023-03-01T07:54:44;102837.75;;;-1.37;100.00
58843;BME280;44614;54.356;10.100;2023-03-01T07:57:10;102828.88;;;-1.39;100.00
58843;BME280;44614;54.356;10.100;2023-03-01T07:59:35;102849.38;;;-1.22;100.00
58843;BME280;44614;54.356;10.100;2023-03-01T08:02:01;102839.16;;;-1.17;100.00
58843;BME280;44614;54.356;10.100;2023-03-01T08:04:26;102784.41;;;-1.46;100.00
58843;BME280;44614;54.356;10.100;2023-03-01T08:06:52;102846.34;;;-1.03;100.00
58843;BME280;44614;54.356;10.100;2023-03-01T08:09:18;102843.38;;;-0.99;100.00
58843;BME280;44614;54.356;10.100;2023-03-01T08:11:43;102842.53;;;-0.99;100.00
58843;BME280;44614;54.356;10.100;2023-03-01T08:14:09;102842.22;;;-0.94;100.00
58843;BME280;44614;54.356;10.100;2023-03-01T08:16:35;102839.91;;;-1.01;100.00
58843;BME280;44614;54.356;10.100;2023-03-01T08:19:11;102738.88;;;-1.51;100.00
58843;BME280;44614;54.356;10.100;2023-03-01T08:21:37;102850.88;;;-0.89;100.00
58843;BME280;44614;54.356;10.100;2023-03-01T08:24:04;102844.22;;;-0.84;100.00
58843;BME280;44614;54.356;10.100;2023-03-01T08:26:30;102845.63;;;-0.78;100.00
58843;BME280;44614;54.356;10.100;2023-03-01T08:28:55;102780.50;;;-1.13;100.00
58843;BME280;44614;54.356;10.100;2023-03-01T08:31:30;102844.38;;;-0.72;100.00
58843;BME280;44614;54.356;10.100;2023-03-01T08:34:00;102838.50;;;-0.65;100.00
58843;BME280;44614;54.356;10.100;2023-03-01T08:36:28;102840.75;;;-0.59;100.00
58843;BME280;44614;54.356;10.100;2023-03-01T08:38:54;102839.91;;;-0.59;100.00
58843;BME280;44614;54.356;10.100;2023-03-01T08:41:20;102839.69;;;-0.56;100.00
58843;BME280;44614;54.356;10.100;2023-03-01T08:43:46;102837.81;;;-0.41;100.00
58843;BME280;44614;54.356;10.100;2023-03-01T08:46:11;102848.38;;;-0.38;100.00
58843;BME280;44614;54.356;10.100;2023-03-01T08:48:37;102844.06;;;-0.41;100.00
58843;BME280;44614;54.356;10.100;2023-03-01T08:51:12;102840.81;;;-0.46;100.00
58843;BME280;44614;54.356;10.100;2023-03-01T08:53:39;102842.19;;;-0.53;100.00
58843;BME280;44614;54.356;10.100;2023-03-01T08:56:04;102822.38;;;-0.66;100.00
58843;BME280;44614;54.356;10.100;2023-03-01T08:58:30;102846.31;;;-0.47;100.00
58843;BME280;44614;54.356;10.100;2023-03-01T09:00:56;102847.13;;;-0.33;100.00
58843;BME280;44614;54.356;10.100;2023-03-01T09:03:22;102848.34;;;-0.24;100.00
58843;BME280;44614;54.356;10.100;2023-03-01T09:05:47;102763.00;;;-0.66;100.00
58843;BME280;44614;54.356;10.100;2023-03-01T09:08:15;102844.50;;;-0.07;100.00
58843;BME280;44614;54.356;10.100;2023-03-01T09:10:41;102843.75;;;0.04;100.00
58843;BME280;44614;54.356;10.100;2023-03-01T09:13:06;102842.88;;;0.03;100.00
58843;BME280;44614;54.356;10.100;2023-03-01T09:15:32;102843.34;;;0.10;100.00
58843;BME280;44614;54.356;10.100;2023-03-01T09:17:58;102855.88;;;0.11;100.00
58843;BME280;44614;54.356;10.100;2023-03-01T09:20:24;102846.34;;;0.05;100.00
58843;BME280;44614;54.356;10.100;2023-03-01T09:22:49;102855.41;;;-0.09;100.00
58843;BME280;44614;54.356;10.100;2023-03-01T09:25:14;102854.59;;;-0.23;100.00
58843;BME280;44614;54.356;10.100;2023-03-01T09:27:40;102849.06;;;-0.35;100.00
58843;BME280;44614;54.356;10.100;2023-03-01T09:30:06;102855.25;;;-0.20;100.00
58843;BME280;44614;54.356;10.100;2023-03-01T09:32:31;102849.47;;;-0.01;100.00
58843;BME280;44614;54.356;10.100;2023-03-01T09:34:57;102855.88;;;0.11;100.00
58843;BME280;44614;54.356;10.100;2023-03-01T09:37:33;102861.84;;;0.29;100.00
58843;BME280;44614;54.356;10.100;2023-03-01T09:39:59;102859.38;;;0.38;100.00
58843;BME280;44614;54.356;10.100;2023-03-01T09:42:24;102848.75;;;0.48;100.00
58843;BME280;44614;54.356;10.100;2023-03-01T09:45:00;102849.41;;;0.52;100.00
58843;BME280;44614;54.356;10.100;2023-03-01T09:47:29;102847.56;;;0.52;100.00
58843;BME280;44614;54.356;10.100;2023-03-01T09:52:46;102856.44;;;0.67;100.00
58843;BME280;44614;54.356;10.100;2023-03-01T09:55:16;102829.94;;;0.59;100.00
58843;BME280;44614;54.356;10.100;2023-03-01T09:57:47;102851.78;;;0.82;100.00
58843;BME280;44614;54.356;10.100;2023-03-01T10:02:45;102861.41;;;0.86;100.00
58843;BME280;44614;54.356;10.100;2023-03-01T10:10:37;102850.69;;;0.84;100.00
58843;BME280;44614;54.356;10.100;2023-03-01T10:13:12;102848.19;;;0.94;100.00
58843;BME280;44614;54.356;10.100;2023-03-01T10:15:46;102850.84;;;1.07;100.00
58843;BME280;44614;54.356;10.100;2023-03-01T10:18:16;102848.22;;;1.18;100.00
58843;BME280;44614;54.356;10.100;2023-03-01T10:20:55;102842.38;;;1.24;100.00
58843;BME280;44614;54.356;10.100;2023-03-01T10:23:27;102848.69;;;1.12;100.00
58843;BME280;44614;54.356;10.100;2023-03-01T10:31:19;102862.03;;;1.39;100.00
58843;BME280;44614;54.356;10.100;2023-03-01T10:33:45;102828.38;;;1.30;100.00
58843;BME280;44614;54.356;10.100;2023-03-01T10:36:13;102826.59;;;1.42;100.00
58843;BME280;44614;54.356;10.100;2023-03-01T10:38:53;102833.75;;;1.43;100.00
58843;BME280;44614;54.356;10.100;2023-03-01T10:41:19;102856.69;;;1.50;100.00
58843;BME280;44614;54.356;10.100;2023-03-01T10:43:48;102855.88;;;1.61;100.00
58843;BME280;44614;54.356;10.100;2023-03-01T10:46:36;102854.13;;;1.60;100.00
58843;BME280;44614;54.356;10.100;2023-03-01T10:49:19;102852.31;;;1.60;100.00
58843;BME280;44614;54.356;10.100;2023-03-01T10:51:47;102769.41;;;1.23;100.00
58843;BME280;44614;54.356;10.100;2023-03-01T10:54:28;102842.84;;;1.66;100.00
58843;BME280;44614;54.356;10.100;2023-03-01T10:56:59;102848.03;;;1.69;100.00
58843;BME280;44614;54.356;10.100;2023-03-01T10:59:36;102837.06;;;1.70;100.00
58843;BME280;44614;54.356;10.100;2023-03-01T11:02:26;102850.16;;;1.77;100.00
58843;BME280;44614;54.356;10.100;2023-03-01T11:07:52;102831.22;;;1.53;100.00
58843;BME280;44614;54.356;10.100;2023-03-01T11:10:24;102833.50;;;1.70;100.00
58843;BME280;44614;54.356;10.100;2023-03-01T11:12:53;102836.28;;;1.57;100.00
58843;BME280;44614;54.356;10.100;2023-03-01T11:15:30;102841.97;;;1.65;100.00
58843;BME280;44614;54.356;10.100;2023-03-01T11:17:56;102844.09;;;1.73;100.00
58843;BME280;44614;54.356;10.100;2023-03-01T11:20:32;102835.03;;;1.85;100.00
58843;BME280;44614;54.356;10.100;2023-03-01T11:23:03;102827.03;;;1.84;100.00
58843;BME280;44614;54.356;10.100;2023-03-01T11:25:40;102821.22;;;1.77;100.00
58843;BME280;44614;54.356;10.100;2023-03-01T11:28:12;102822.59;;;1.83;100.00
58843;BME280;44614;54.356;10.100;2023-03-01T11:33:57;102834.41;;;1.82;100.00
58843;BME280;44614;54.356;10.100;2023-03-01T11:36:02;102833.06;;;1.76;100.00
58843;BME280;44614;54.356;10.100;2023-03-01T11:38:34;102825.34;;;1.94;100.00
58843;BME280;44614;54.356;10.100;2023-03-01T11:41:04;102824.66;;;2.03;100.00
58843;BME280;44614;54.356;10.100;2023-03-01T11:43:47;102763.94;;;1.70;100.00
58843;BME280;44614;54.356;10.100;2023-03-01T11:57:29;102813.59;;;2.40;99.31
58843;BME280;44614;54.356;10.100;2023-03-01T12:02:53;102811.47;;;2.21;98.80
58843;BME280;44614;54.356;10.100;2023-03-01T12:08:33;102800.56;;;2.45;100.00
58843;BME280;44614;54.356;10.100;2023-03-01T12:22:36;102789.19;;;2.40;99.75
58843;BME280;44614;54.356;10.100;2023-03-01T12:28:51;102783.16;;;2.36;100.00
58843;BME280;44614;54.356;10.100;2023-03-01T12:31:42;102790.69;;;2.33;99.78
58843;BME280;44614;54.356;10.100;2023-03-01T12:39:52;102781.94;;;2.18;100.00
58843;BME280;44614;54.356;10.100;2023-03-01T12:45:26;102741.88;;;2.22;100.00
58843;BME280;44614;54.356;10.100;2023-03-01T12:50:59;102775.03;;;2.36;100.00
58843;BME280;44614;54.356;10.100;2023-03-01T12:53:36;102775.41;;;2.43;100.00
58843;BME280;44614;54.356;10.100;2023-03-01T12:56:06;102774.91;;;2.38;100.00
58843;BME280;44614;54.356;10.100;2023-03-01T12:58:39;102772.06;;;2.39;99.85
58843;BME280;44614;54.356;10.100;2023-03-01T13:09:35;102761.00;;;2.65;99.50
58843;BME280;44614;54.356;10.100;2023-03-01T13:12:01;102764.41;;;2.67;99.56
58843;BME280;44614;54.356;10.100;2023-03-01T13:14:35;102761.84;;;2.65;99.45
58843;BME280;44614;54.356;10.100;2023-03-01T13:17:01;102761.00;;;2.65;99.22
58843;BME280;44614;54.356;10.100;2023-03-01T13:19:28;102767.41;;;2.53;98.45
58843;BME280;44614;54.356;10.100;2023-03-01T13:21:55;102745.09;;;2.38;99.53
58843;BME280;44614;54.356;10.100;2023-03-01T13:29:50;102753.34;;;2.48;99.79
58843;BME280;44614;54.356;10.100;2023-03-01T13:32:25;102759.88;;;2.45;99.39
58843;BME280;44614;54.356;10.100;2023-03-01T13:37:28;102751.25;;;2.40;100.00
58843;BME280;44614;54.356;10.100;2023-03-01T13:39:55;102752.00;;;2.31;99.54
58843;BME280;44614;54.356;10.100;2023-03-01T13:42:38;102754.06;;;2.16;100.00
58843;BME280;44614;54.356;10.100;2023-03-01T13:45:16;102747.94;;;2.25;100.00
58843;BME280;44614;54.356;10.100;2023-03-01T13:47:45;102702.78;;;2.02;100.00
58843;BME280;44614;54.356;10.100;2023-03-01T13:50:19;102744.22;;;2.26;100.00
58843;BME280;44614;54.356;10.100;2023-03-01T13:52:58;102743.59;;;2.11;100.00
58843;BME280;44614;54.356;10.100;2023-03-01T13:55:48;102742.31;;;1.93;100.00
58843;BME280;44614;54.356;10.100;2023-03-01T13:58:23;102737.13;;;1.90;100.00
58843;BME280;44614;54.356;10.100;2023-03-01T14:03:21;102724.34;;;1.92;100.00
58843;BME280;44614;54.356;10.100;2023-03-01T14:08:28;102734.44;;;2.01;100.00
58843;BME280;44614;54.356;10.100;2023-03-01T14:13:54;102711.78;;;1.91;100.00
58843;BME280;44614;54.356;10.100;2023-03-01T14:17:12;102739.41;;;2.07;100.00
58843;BME280;44614;54.356;10.100;2023-03-01T14:19:43;102734.34;;;2.03;100.00